SBPJ

Brigadeiro Lysias Rodrigues Airport

Palmas, Brazil
TAF SBPJ 192200Z 2000/2012 36005KT 9999 FEW036 TN25/2009Z TX29/2011Z BECMG 2001/2003 CAVOK BECMG 2009/2011 09005KT FEW032 RMK PDS
Issued Valid From Valid To
Sep-19 @ 22:00 UTC
(3 hours ago)
Sep-20 @ 00:00 UTC
(42 minutes ago)
Sep-20 @ 12:00 UTC
(in 11 hours)
Sep-20 @ 00:00 to Sep-20 @ 01:00
TAF SBPJ 192200Z 2000/2012 36005KT 9999 FEW036 TN25/2009Z TX29/2011Z
Wind Visibility Clouds
360° at 5 knots 10,000+ meters
  • Few at 3,600' AGL
Becoming Sep-20 @ 01:00 to Sep-20 @ 09:00
BECMG 2001/2003 CAVOK
Wind Visibility Clouds Conditions
360° at 5 knots 10,000+ meters
  • No significant clouds
Becoming Sep-20 @ 09:00 to Sep-20 @ 12:00
BECMG 2009/2011 09005KT FEW032 RMK PDS
Wind Visibility Clouds Conditions
90° at 5 knots 10,000+ meters
  • Few at 3,200' AGL
TAF SBPJ 192200Z 2000/2012 36005KT 9999 FEW036 TN25/2009Z TX29/2011Z BECMG 2001/2003 CAVOK BECMG 2009/2011 09005KT FEW032 RMK PDS
Issued Sep-19 @ 22:00 UTC
(3 hours ago)
Valid From Sep-20 @ 00:00 UTC
(42 minutes ago)
Valid To Sep-20 @ 12:00 UTC
(in 11 hours)
Sep-20 @ 00:00 - Sep-20 @ 01:00
Wind Visibility
360° at 5 knots 10,000+ meters
Clouds
  • Few at 3,600' AGL
Becoming Sep-20 @ 01:00 - Sep-20 @ 09:00
Wind Visibility
360° at 5 knots 10,000+ meters
Clouds
  • No significant clouds
Conditions
Becoming Sep-20 @ 09:00 - Sep-20 @ 12:00
Wind Visibility
90° at 5 knots 10,000+ meters
Clouds
  • Few at 3,200' AGL
Conditions